Time;durP1;ratioP1;P1;durP2;ratioP2;P2;SDS_P1;SDS_P2;PMS_P1;PMS_P2;Temp;Humidity;BMP_temperature;BMP_pressure;BME280_temperature;BME280_humidity;BME280_pressure;Samples;Min_cycle;Max_cycle;Signal;HPM_P1;HPM_P2
2021/09/03 00:01:50;;;;;;;11.98;8.10;;;12.70;99.90;;;;;;5056556;28;20033;-68
2021/09/03 00:04:15;;;;;;;9.40;7.57;;;12.70;99.90;;;;;;5056223;28;20040;-68
2021/09/03 00:06:41;;;;;;;13.73;8.93;;;12.70;99.90;;;;;;5055435;28;20526;-68
2021/09/03 00:09:07;;;;;;;10.50;8.38;;;12.70;99.90;;;;;;5057368;28;20039;-68
2021/09/03 00:11:32;;;;;;;10.43;7.72;;;12.60;99.90;;;;;;5056756;28;20079;-68
2021/09/03 00:13:58;;;;;;;10.43;7.72;;;12.60;99.90;;;;;;5056362;28;20036;-68
2021/09/03 00:16:24;;;;;;;9.63;7.68;;;12.60;99.90;;;;;;5057535;28;20036;-68
2021/09/03 00:18:49;;;;;;;10.20;8.25;;;12.60;99.90;;;;;;5057144;28;20029;-68
2021/09/03 00:21:15;;;;;;;14.88;8.35;;;12.60;99.90;;;;;;5057631;28;20040;-68
2021/09/03 00:23:41;;;;;;;10.80;7.72;;;12.50;99.90;;;;;;5056869;28;20500;-68
2021/09/03 00:26:06;;;;;;;11.05;8.38;;;12.50;99.90;;;;;;5057418;28;20462;-68
2021/09/03 00:28:32;;;;;;;11.82;8.77;;;12.50;99.90;;;;;;5057513;28;20496;-68
2021/09/03 00:30:58;;;;;;;13.63;8.60;;;12.50;99.90;;;;;;5056213;28;20672;-68
2021/09/03 00:33:23;;;;;;;10.27;8.13;;;12.50;99.90;;;;;;5056258;28;20486;-68
2021/09/03 00:35:49;;;;;;;9.40;8.02;;;12.50;99.90;;;;;;5056328;28;20116;-68
2021/09/03 00:38:14;;;;;;;12.07;8.15;;;12.40;99.90;;;;;;5056123;28;20036;-68
2021/09/03 00:40:40;;;;;;;9.27;8.02;;;12.40;99.90;;;;;;5056385;28;20052;-68
2021/09/03 00:43:06;;;;;;;11.25;8.43;;;12.40;99.90;;;;;;5057279;28;20080;-68
2021/09/03 00:45:31;;;;;;;12.32;8.18;;;12.40;99.90;;;;;;5038432;28;20525;-68
2021/09/03 00:47:57;;;;;;;11.70;8.45;;;12.30;99.90;;;;;;5056541;28;20513;-68
2021/09/03 00:50:23;;;;;;;13.05;8.13;;;12.20;99.90;;;;;;5057237;28;20112;-68
2021/09/03 00:52:49;;;;;;;10.07;7.57;;;12.10;99.90;;;;;;5056710;28;20097;-68
2021/09/03 00:55:15;;;;;;;10.10;7.40;;;12.10;99.90;;;;;;5053403;28;20052;-68
2021/09/03 00:57:41;;;;;;;10.50;7.70;;;12.00;99.90;;;;;;5056344;28;20557;-68
2021/09/03 01:00:08;;;;;;;12.23;8.20;;;12.00;99.90;;;;;;5056841;28;20103;-69
2021/09/03 01:02:34;;;;;;;11.57;8.25;;;12.00;99.90;;;;;;5056980;28;20032;-68
2021/09/03 01:05:00;;;;;;;9.85;7.60;;;12.00;99.90;;;;;;5056442;28;20025;-68
2021/09/03 01:07:26;;;;;;;10.82;7.55;;;11.90;99.90;;;;;;5054562;28;20359;-68
2021/09/03 01:09:52;;;;;;;9.88;7.70;;;11.90;99.90;;;;;;5052779;28;20040;-68
2021/09/03 01:12:17;;;;;;;11.05;7.75;;;11.90;99.90;;;;;;5054328;28;20037;-68
2021/09/03 01:14:43;;;;;;;10.13;7.60;;;11.90;99.90;;;;;;5053225;28;20029;-68
2021/09/03 01:17:09;;;;;;;11.85;7.95;;;11.80;99.90;;;;;;5052322;28;20087;-68
2021/09/03 01:19:35;;;;;;;10.57;7.97;;;11.80;99.90;;;;;;5054096;28;20033;-68
2021/09/03 01:22:00;;;;;;;10.50;7.47;;;11.80;99.90;;;;;;5052857;28;20025;-68
2021/09/03 01:24:26;;;;;;;9.35;7.97;;;11.70;99.90;;;;;;5053492;28;20032;-68
2021/09/03 01:26:52;;;;;;;12.48;8.57;;;11.70;99.90;;;;;;5052853;28;20032;-68
2021/09/03 01:29:17;;;;;;;10.50;7.80;;;11.60;99.90;;;;;;5053557;28;20482;-68
2021/09/03 01:31:43;;;;;;;11.27;8.05;;;11.60;99.90;;;;;;5051848;28;20078;-68
2021/09/03 01:34:09;;;;;;;9.98;7.68;;;11.50;99.90;;;;;;5053350;28;20104;-68
2021/09/03 01:36:34;;;;;;;10.73;7.97;;;11.50;99.90;;;;;;5053023;28;20516;-68
2021/09/03 01:39:01;;;;;;;10.07;7.55;;;11.40;99.90;;;;;;5052566;28;20661;-68
2021/09/03 01:41:27;;;;;;;10.02;8.40;;;11.40;99.90;;;;;;5052143;28;20059;-68
2021/09/03 01:43:53;;;;;;;9.35;7.50;;;11.30;99.90;;;;;;5052726;28;20386;-69
2021/09/03 01:46:19;;;;;;;11.45;8.57;;;11.30;99.90;;;;;;5052041;28;20036;-68
2021/09/03 01:48:46;;;;;;;11.90;8.77;;;11.30;99.90;;;;;;5051989;28;20104;-68
2021/09/03 01:51:12;;;;;;;13.93;9.07;;;11.30;99.90;;;;;;5052925;28;20028;-67
2021/09/03 01:53:37;;;;;;;12.18;9.57;;;11.30;99.90;;;;;;5053014;28;20447;-68
2021/09/03 01:56:04;;;;;;;13.35;9.43;;;11.30;99.90;;;;;;5052368;28;20035;-68
2021/09/03 01:58:29;;;;;;;12.57;8.88;;;11.30;99.90;;;;;;5053449;28;20112;-68
2021/09/03 02:00:55;;;;;;;12.32;9.27;;;11.30;99.90;;;;;;5051802;28;20117;-67
2021/09/03 02:03:21;;;;;;;14.95;8.98;;;11.30;99.90;;;;;;5053139;28;20056;-68
2021/09/03 02:05:46;;;;;;;11.60;8.38;;;11.30;99.90;;;;;;5052492;28;20040;-68
2021/09/03 02:08:12;;;;;;;10.77;8.50;;;11.30;99.90;;;;;;5052593;28;20032;-68
2021/09/03 02:10:38;;;;;;;11.10;8.60;;;11.30;99.90;;;;;;5052520;28;20029;-68
2021/09/03 02:13:03;;;;;;;12.07;9.55;;;11.20;99.90;;;;;;5051900;28;20796;-68
2021/09/03 02:15:29;;;;;;;15.30;10.02;;;11.20;99.90;;;;;;5052703;28;20422;-68
2021/09/03 02:17:55;;;;;;;13.95;10.02;;;11.20;99.90;;;;;;5051712;28;20394;-68
2021/09/03 02:20:20;;;;;;;13.68;9.50;;;11.10;99.90;;;;;;5051138;28;20047;-68
2021/09/03 02:22:46;;;;;;;11.32;9.13;;;11.10;99.90;;;;;;5051733;28;20036;-68
2021/09/03 02:25:12;;;;;;;12.27;9.60;;;11.00;99.90;;;;;;5052770;28;20025;-68
2021/09/03 02:27:38;;;;;;;14.13;10.23;;;11.00;99.90;;;;;;5052154;28;20029;-68
2021/09/03 02:30:06;;;;;;;12.43;9.73;;;11.00;99.90;;;;;;5050979;28;20599;-68
2021/09/03 02:32:31;;;;;;;14.85;9.68;;;11.00;99.90;;;;;;5050903;28;20037;-68
2021/09/03 02:34:57;;;;;;;13.75;10.15;;;11.00;99.90;;;;;;5049847;28;20032;-68
2021/09/03 02:37:23;;;;;;;12.30;9.48;;;11.00;99.90;;;;;;5050780;28;20513;-68
2021/09/03 02:39:48;;;;;;;12.43;9.88;;;11.00;99.90;;;;;;5049966;28;20037;-68
2021/09/03 02:42:14;;;;;;;13.07;9.90;;;11.00;99.90;;;;;;5047761;28;20085;-68
2021/09/03 02:44:40;;;;;;;12.80;10.50;;;11.00;99.90;;;;;;5048329;28;20493;-68
2021/09/03 02:47:05;;;;;;;13.38;9.68;;;10.90;99.90;;;;;;5046651;28;20025;-68
2021/09/03 02:49:31;;;;;;;12.75;10.10;;;11.00;99.90;;;;;;5050552;28;20059;-68
2021/09/03 02:51:56;;;;;;;14.52;10.38;;;11.00;99.90;;;;;;5049885;28;20036;-68
2021/09/03 02:54:22;;;;;;;14.57;10.15;;;10.90;99.90;;;;;;5049410;28;20406;-68
2021/09/03 02:56:48;;;;;;;13.50;11.25;;;10.90;99.90;;;;;;5049760;28;20402;-68
2021/09/03 02:59:13;;;;;;;19.73;11.35;;;10.90;99.90;;;;;;5050004;28;20031;-68
2021/09/03 03:01:39;;;;;;;14.68;10.27;;;10.90;99.90;;;;;;5050368;28;20044;-68
2021/09/03 03:04:04;;;;;;;14.98;11.05;;;10.90;99.90;;;;;;5048481;28;20033;-68
2021/09/03 03:06:30;;;;;;;11.75;9.15;;;10.80;99.90;;;;;;5050044;28;20044;-68
2021/09/03 03:08:56;;;;;;;13.70;10.68;;;10.70;99.90;;;;;;5049378;28;20504;-68
2021/09/03 03:11:21;;;;;;;14.63;11.13;;;10.70;99.90;;;;;;5049742;28;20053;-68
2021/09/03 03:13:48;;;;;;;17.23;11.27;;;10.70;99.90;;;;;;5049585;28;20078;-69
2021/09/03 03:16:17;;;;;;;15.15;10.90;;;10.70;99.90;;;;;;5050453;28;20463;-68
2021/09/03 03:18:43;;;;;;;16.08;10.52;;;10.60;99.90;;;;;;5047389;28;20075;-68
2021/09/03 03:21:09;;;;;;;13.55;10.30;;;10.60;99.90;;;;;;5050286;28;20060;-68
2021/09/03 03:23:34;;;;;;;17.15;11.70;;;10.60;99.90;;;;;;5049868;28;20056;-68
2021/09/03 03:26:02;;;;;;;17.02;10.73;;;10.60;99.90;;;;;;5049324;28;20086;-68
2021/09/03 03:28:28;;;;;;;13.70;11.43;;;10.60;99.90;;;;;;5050196;28;20028;-68
2021/09/03 03:30:53;;;;;;;17.13;11.27;;;10.60;99.90;;;;;;5049222;28;20064;-68
2021/09/03 03:33:19;;;;;;;18.10;11.88;;;10.60;99.90;;;;;;5049797;28;20042;-68
2021/09/03 03:35:44;;;;;;;14.48;11.57;;;10.70;99.90;;;;;;5047796;28;20378;-68
2021/09/03 03:38:10;;;;;;;19.13;12.60;;;10.70;99.90;;;;;;5050038;28;20155;-68
2021/09/03 03:40:36;;;;;;;17.83;12.07;;;10.70;99.90;;;;;;5049493;28;20040;-68
2021/09/03 03:43:01;;;;;;;19.45;11.77;;;10.60;99.90;;;;;;5049147;28;20176;-68
2021/09/03 03:45:27;;;;;;;16.73;11.60;;;10.60;99.90;;;;;;5049771;28;20118;-68
2021/09/03 03:47:53;;;;;;;16.60;11.02;;;10.50;99.90;;;;;;5048884;28;21478;-67
2021/09/03 03:50:18;;;;;;;16.35;10.75;;;10.50;99.90;;;;;;5049738;28;20025;-67
2021/09/03 03:52:44;;;;;;;16.15;11.60;;;10.40;99.90;;;;;;5049216;28;20398;-69
2021/09/03 03:55:10;;;;;;;15.32;11.63;;;10.40;99.90;;;;;;5049629;28;20038;-67
2021/09/03 03:57:35;;;;;;;14.57;11.35;;;10.40;99.90;;;;;;5049740;28;20036;-69
2021/09/03 04:00:02;;;;;;;15.75;11.18;;;10.40;99.90;;;;;;5048997;28;20696;-69
2021/09/03 04:02:27;;;;;;;17.17;11.75;;;10.40;99.90;;;;;;5049712;28;20465;-69
2021/09/03 04:04:53;;;;;;;16.48;11.70;;;10.30;99.90;;;;;;5048629;28;20110;-69
2021/09/03 04:07:19;;;;;;;16.95;11.30;;;10.30;99.90;;;;;;5046451;28;20074;-69
2021/09/03 04:09:44;;;;;;;17.35;12.13;;;10.30;99.90;;;;;;5048836;28;20124;-69
2021/09/03 04:12:10;;;;;;;15.40;11.05;;;10.30;99.90;;;;;;5048376;28;20045;-69
2021/09/03 04:14:36;;;;;;;17.50;11.90;;;10.20;99.90;;;;;;5049736;28;20029;-69
2021/09/03 04:17:02;;;;;;;16.95;12.07;;;10.10;99.90;;;;;;5049028;28;20047;-69
2021/09/03 04:19:28;;;;;;;16.30;11.68;;;10.10;99.90;;;;;;5049464;28;20127;-69
2021/09/03 04:21:54;;;;;;;18.08;12.55;;;10.10;99.90;;;;;;5048291;28;20569;-69
2021/09/03 04:24:19;;;;;;;16.30;12.15;;;10.10;99.90;;;;;;5049338;28;20036;-69
2021/09/03 04:26:45;;;;;;;18.75;12.55;;;10.00;99.90;;;;;;5048584;28;20036;-69
2021/09/03 04:29:10;;;;;;;20.73;12.90;;;10.00;99.90;;;;;;5049743;28;20460;-69
2021/09/03 04:31:36;;;;;;;20.02;12.77;;;9.90;99.90;;;;;;5049768;28;20542;-69
2021/09/03 04:34:02;;;;;;;22.55;13.52;;;9.90;99.90;;;;;;5047384;28;20029;-69
2021/09/03 04:36:27;;;;;;;16.80;12.88;;;9.90;99.90;;;;;;5049281;28;20032;-69
2021/09/03 04:38:53;;;;;;;17.33;13.35;;;10.00;99.90;;;;;;5048573;28;20040;-69
2021/09/03 04:41:18;;;;;;;17.10;12.57;;;9.90;99.90;;;;;;5045180;28;20053;-69
2021/09/03 04:43:44;;;;;;;23.02;14.55;;;9.90;99.90;;;;;;5051303;28;20108;-69
2021/09/03 04:46:10;;;;;;;21.60;14.30;;;9.90;99.90;;;;;;5054417;28;20025;-68
2021/09/03 04:48:35;;;;;;;18.92;13.43;;;9.90;99.90;;;;;;5054343;28;20032;-69
2021/09/03 04:51:01;;;;;;;20.23;14.32;;;9.90;99.90;;;;;;5053898;28;20031;-69
2021/09/03 04:53:27;;;;;;;18.67;13.60;;;9.80;99.90;;;;;;5054280;28;20044;-69
2021/09/03 04:55:53;;;;;;;20.60;14.05;;;9.80;99.90;;;;;;5053802;28;20029;-69
2021/09/03 04:58:19;;;;;;;18.02;13.15;;;9.80;99.90;;;;;;5054478;28;20028;-69
2021/09/03 05:00:45;;;;;;;17.95;12.82;;;9.90;99.90;;;;;;5053606;28;20025;-68
2021/09/03 05:03:10;;;;;;;18.58;13.25;;;9.90;99.90;;;;;;5054084;28;20490;-68
2021/09/03 05:05:36;;;;;;;21.40;15.15;;;10.00;99.90;;;;;;5054233;28;20032;-68
2021/09/03 05:08:02;;;;;;;22.50;13.95;;;10.00;99.90;;;;;;5052936;28;20169;-68
2021/09/03 05:10:27;;;;;;;20.27;13.27;;;10.10;99.90;;;;;;5053907;28;20731;-67
2021/09/03 05:12:53;;;;;;;16.23;12.77;;;10.10;99.90;;;;;;5052821;28;20044;-68
2021/09/03 05:15:25;;;;;;;16.92;12.38;;;10.10;99.90;;;;;;5052920;28;20445;-67
2021/09/03 05:17:51;;;;;;;14.52;11.38;;;10.10;99.90;;;;;;5053087;28;20496;-67
2021/09/03 05:20:17;;;;;;;17.00;12.25;;;10.10;99.90;;;;;;5053958;28;20104;-68
2021/09/03 05:22:43;;;;;;;16.55;11.77;;;10.10;99.90;;;;;;5053300;28;20037;-69
2021/09/03 05:25:10;;;;;;;19.25;13.15;;;10.20;99.90;;;;;;5053027;28;20051;-68
2021/09/03 05:27:36;;;;;;;17.50;12.85;;;10.20;99.90;;;;;;5053672;28;20029;-67
2021/09/03 05:30:03;;;;;;;20.30;12.43;;;10.30;99.90;;;;;;5052774;28;20059;-68
2021/09/03 05:32:29;;;;;;;17.25;12.18;;;10.40;99.90;;;;;;5053266;28;20402;-67
2021/09/03 05:34:54;;;;;;;18.95;12.18;;;10.40;99.90;;;;;;5052272;28;20036;-68
2021/09/03 05:37:20;;;;;;;16.77;12.20;;;10.50;99.90;;;;;;5053822;28;20048;-68
2021/09/03 05:39:46;;;;;;;19.55;12.98;;;10.60;99.90;;;;;;5052703;28;20052;-69
2021/09/03 05:42:12;;;;;;;16.90;12.27;;;10.70;99.90;;;;;;5053129;28;20057;-68
2021/09/03 05:44:39;;;;;;;17.85;13.32;;;10.80;99.90;;;;;;5051194;28;20499;-68
2021/09/03 05:47:04;;;;;;;17.98;12.60;;;10.90;99.90;;;;;;5052036;28;20082;-68
2021/09/03 05:49:30;;;;;;;19.35;13.82;;;11.00;99.90;;;;;;5053061;28;20029;-68
2021/09/03 05:51:56;;;;;;;18.95;12.77;;;11.10;99.90;;;;;;5052746;28;20451;-74
2021/09/03 05:54:21;;;;;;;18.25;12.63;;;11.20;99.90;;;;;;5052154;28;20029;-67
2021/09/03 05:56:47;;;;;;;16.48;12.65;;;11.30;99.90;;;;;;5051517;28;20021;-68
2021/09/03 05:59:13;;;;;;;20.65;13.57;;;11.40;99.90;;;;;;5053061;28;20067;-68
2021/09/03 06:01:38;;;;;;;18.73;13.52;;;11.50;99.90;;;;;;5035711;28;20034;-68
2021/09/03 06:04:04;;;;;;;22.58;14.48;;;11.60;99.90;;;;;;5040868;28;20477;-67
2021/09/03 06:06:30;;;;;;;19.00;13.27;;;11.70;99.90;;;;;;5050697;28;20025;-70
2021/09/03 06:08:55;;;;;;;19.63;13.73;;;11.80;99.90;;;;;;5053407;28;20021;-69
2021/09/03 06:11:25;;;;;;;22.10;13.35;;;11.90;99.90;;;;;;5052496;28;20056;-69
2021/09/03 06:13:52;;;;;;;19.20;13.40;;;12.00;99.90;;;;;;5051648;28;20406;-68
2021/09/03 06:16:17;;;;;;;21.95;13.63;;;12.10;99.90;;;;;;5052738;28;20025;-68
2021/09/03 06:18:43;;;;;;;47.42;14.45;;;12.10;99.90;;;;;;5051407;28;20347;-75
2021/09/03 06:21:09;;;;;;;28.15;13.05;;;12.20;99.90;;;;;;5051921;28;20127;-69
2021/09/03 06:23:35;;;;;;;28.10;13.23;;;12.30;99.90;;;;;;5052621;28;20052;-68
2021/09/03 06:26:00;;;;;;;21.85;13.05;;;12.30;99.90;;;;;;5051724;28;20053;-68
2021/09/03 06:28:26;;;;;;;18.95;12.75;;;12.40;99.90;;;;;;5052351;28;20021;-76
2021/09/03 06:30:52;;;;;;;17.70;13.02;;;12.50;99.90;;;;;;5050895;28;20376;-74
2021/09/03 06:33:17;;;;;;;16.48;11.20;;;12.70;99.90;;;;;;5051757;28;20037;-74
2021/09/03 06:35:43;;;;;;;20.38;12.00;;;12.70;99.90;;;;;;5052002;28;20037;-74
2021/09/03 06:38:09;;;;;;;17.38;12.75;;;12.80;99.90;;;;;;5051732;28;20387;-73
2021/09/03 06:40:35;;;;;;;21.73;13.43;;;12.90;99.90;;;;;;5051730;28;20107;-73
2021/09/03 06:43:00;;;;;;;18.52;12.65;;;13.00;99.90;;;;;;5051555;28;20037;-74
2021/09/03 06:45:26;;;;;;;18.00;12.38;;;13.20;99.90;;;;;;5052076;28;20107;-74
2021/09/03 06:47:51;;;;;;;17.88;12.65;;;13.30;99.90;;;;;;5051122;28;20119;-73
2021/09/03 06:50:18;;;;;;;18.63;12.32;;;13.40;99.90;;;;;;5052225;28;20125;-74
2021/09/03 06:52:44;;;;;;;22.33;12.85;;;13.50;99.90;;;;;;5051879;28;20039;-75
2021/09/03 06:55:11;;;;;;;17.10;11.85;;;13.70;99.90;;;;;;5049765;28;20052;-74
2021/09/03 06:57:40;;;;;;;22.42;12.95;;;13.80;99.90;;;;;;5051896;28;20040;-73
2021/09/03 07:00:07;;;;;;;24.45;13.60;;;13.90;99.90;;;;;;5051141;28;20036;-73
2021/09/03 07:02:33;;;;;;;18.75;13.20;;;14.00;99.90;;;;;;5050106;28;20107;-73
2021/09/03 07:04:59;;;;;;;26.77;13.48;;;14.00;99.90;;;;;;5048660;28;20037;-73
2021/09/03 07:07:24;;;;;;;19.95;13.10;;;14.10;99.90;;;;;;5051335;28;20033;-73
2021/09/03 07:09:51;;;;;;;23.55;13.48;;;14.20;99.90;;;;;;5050498;28;20463;-72
2021/09/03 07:12:17;;;;;;;20.45;12.13;;;14.40;99.90;;;;;;5051199;28;20112;-73
2021/09/03 07:14:44;;;;;;;16.77;10.15;;;14.50;99.90;;;;;;5051705;28;20028;-73
2021/09/03 07:17:09;;;;;;;19.25;9.88;;;14.70;99.90;;;;;;5050664;28;20064;-74
2021/09/03 07:19:35;;;;;;;14.15;9.27;;;14.90;99.90;;;;;;5051202;28;20052;-74
2021/09/03 07:22:05;;;;;;;12.80;8.93;;;15.10;99.90;;;;;;5050326;28;20029;-74
2021/09/03 07:24:31;;;;;;;13.00;7.82;;;15.40;99.90;;;;;;5051272;28;20394;-73
2021/09/03 07:26:57;;;;;;;10.48;7.72;;;15.60;99.90;;;;;;5050584;28;20081;-74
2021/09/03 07:29:23;;;;;;;12.82;7.43;;;15.80;99.90;;;;;;5051401;28;20039;-74
2021/09/03 07:31:48;;;;;;;9.40;7.38;;;15.90;99.90;;;;;;5050581;28;20033;-72
2021/09/03 07:34:14;;;;;;;12.38;7.90;;;16.00;99.90;;;;;;5050650;28;20166;-74
2021/09/03 07:36:40;;;;;;;12.13;6.60;;;16.10;99.90;;;;;;5051427;28;20528;-75
2021/09/03 07:39:05;;;;;;;9.32;7.15;;;16.20;99.90;;;;;;5050314;28;20029;-74
2021/09/03 07:41:31;;;;;;;11.25;7.65;;;16.40;99.90;;;;;;5050997;28;20045;-74
2021/09/03 07:43:57;;;;;;;9.70;7.45;;;16.50;99.90;;;;;;5050513;28;20033;-74
2021/09/03 07:46:23;;;;;;;12.80;7.65;;;16.60;99.90;;;;;;5051121;28;20028;-74
2021/09/03 07:48:49;;;;;;;15.25;8.25;;;16.80;99.90;;;;;;5050645;28;20036;-72
2021/09/03 07:51:15;;;;;;;9.32;7.30;;;16.80;99.90;;;;;;5050153;28;20441;-74
2021/09/03 07:53:41;;;;;;;9.63;7.20;;;16.90;99.90;;;;;;5051045;28;20386;-73
2021/09/03 07:56:07;;;;;;;10.52;7.18;;;17.00;99.90;;;;;;5050191;28;20051;-74
2021/09/03 07:58:33;;;;;;;9.55;7.07;;;17.10;99.90;;;;;;5050962;28;20037;-74
2021/09/03 08:01:00;;;;;;;11.32;7.35;;;17.30;99.90;;;;;;5049254;28;20437;-74
2021/09/03 08:03:26;;;;;;;10.32;7.20;;;17.30;99.90;;;;;;5050492;28;20033;-73
2021/09/03 08:05:52;;;;;;;12.10;7.53;;;17.40;99.90;;;;;;5050069;28;20078;-72
2021/09/03 08:08:17;;;;;;;12.30;7.05;;;17.50;99.90;;;;;;5050994;28;20102;-73
2021/09/03 08:10:43;;;;;;;9.52;7.30;;;17.70;99.90;;;;;;5049828;28;20080;-73
2021/09/03 08:13:09;;;;;;;12.77;7.80;;;17.80;99.90;;;;;;5049825;28;20677;-73
2021/09/03 08:15:35;;;;;;;9.18;6.97;;;17.80;99.90;;;;;;5051247;28;20473;-73
2021/09/03 08:18:02;;;;;;;11.45;7.70;;;17.90;99.90;;;;;;5053077;28;20028;-73
2021/09/03 08:20:29;;;;;;;9.13;7.35;;;18.00;99.90;;;;;;5054748;28;20183;-74
2021/09/03 08:22:55;;;;;;;9.00;7.78;;;18.00;99.90;;;;;;5054167;28;20043;-73
2021/09/03 08:25:21;;;;;;;9.85;7.55;;;18.10;99.90;;;;;;5054614;28;20111;-74
2021/09/03 08:27:49;;;;;;;9.27;7.22;;;18.20;99.60;;;;;;5054011;28;20367;-74
2021/09/03 08:30:15;;;;;;;10.65;7.78;;;18.20;99.20;;;;;;5053815;28;20086;-74
2021/09/03 08:32:41;;;;;;;11.90;6.88;;;18.20;98.80;;;;;;5051603;28;20039;-72
2021/09/03 08:35:07;;;;;;;12.95;7.63;;;18.30;98.70;;;;;;5053267;28;20040;-73
2021/09/03 08:37:33;;;;;;;9.93;7.97;;;18.40;97.90;;;;;;5054771;28;20059;-69
2021/09/03 08:39:59;;;;;;;11.85;8.40;;;18.60;97.50;;;;;;5053218;28;20458;-68
2021/09/03 08:42:26;;;;;;;10.32;6.38;;;18.80;96.30;;;;;;5054330;28;20143;-69
2021/09/03 08:44:52;;;;;;;10.32;7.75;;;18.70;96.70;;;;;;5053612;28;20394;-70
2021/09/03 08:47:20;;;;;;;10.88;7.28;;;18.70;96.60;;;;;;5054340;28;20021;-69
2021/09/03 08:49:46;;;;;;;9.93;6.95;;;18.80;96.30;;;;;;5054304;28;20029;-69
2021/09/03 08:52:12;;;;;;;8.73;6.30;;;18.80;96.20;;;;;;5053485;28;20083;-69
2021/09/03 08:54:37;;;;;;;10.40;7.22;;;18.90;96.00;;;;;;5054027;28;20064;-69
2021/09/03 08:57:05;;;;;;;9.35;6.57;;;18.90;95.80;;;;;;5051851;28;20659;-69
2021/09/03 08:59:31;;;;;;;11.13;6.80;;;19.00;96.00;;;;;;5053650;28;20032;-69
2021/09/03 09:02:20;;;;;;;9.70;7.13;;;19.20;95.40;;;;;;5052904;28;20040;-69
2021/09/03 09:04:51;;;;;;;11.73;7.18;;;19.30;94.70;;;;;;5052203;28;20466;-69
2021/09/03 09:07:17;;;;;;;9.82;7.53;;;19.40;94.50;;;;;;5053236;28;20089;-69
2021/09/03 09:09:46;;;;;;;11.23;6.82;;;19.50;93.60;;;;;;5053535;28;20036;-69
2021/09/03 09:12:14;;;;;;;8.43;7.00;;;19.60;93.80;;;;;;5052544;28;20284;-69
2021/09/03 09:15:06;;;;;;;8.68;6.88;;;19.70;93.70;;;;;;5052882;28;20051;-68
2021/09/03 09:17:49;;;;;;;8.18;6.85;;;19.80;93.20;;;;;;5048373;28;20040;-69
2021/09/03 09:20:19;;;;;;;7.10;6.07;;;19.90;93.80;;;;;;5033450;28;20043;-69
2021/09/03 09:22:56;;;;;;;18.13;7.47;;;19.90;93.80;;;;;;5045622;28;20120;-69
2021/09/03 09:25:27;;;;;;;10.05;7.10;;;20.00;93.30;;;;;;5053677;28;20028;-68
2021/09/03 09:27:54;;;;;;;7.70;6.35;;;20.00;92.90;;;;;;5052659;28;20036;-70
2021/09/03 09:30:26;;;;;;;9.57;6.95;;;20.10;93.10;;;;;;5052959;28;20108;-69
2021/09/03 09:33:13;;;;;;;8.48;6.70;;;20.20;92.90;;;;;;5052292;28;20116;-69
2021/09/03 09:36:00;;;;;;;11.38;7.07;;;20.30;92.50;;;;;;5053534;28;20037;-69
2021/09/03 09:38:29;;;;;;;7.68;6.05;;;20.40;92.80;;;;;;5047802;28;20037;-69
2021/09/03 09:41:03;;;;;;;10.07;6.53;;;20.50;92.80;;;;;;5052774;28;20041;-69
2021/09/03 09:43:33;;;;;;;9.57;6.68;;;20.80;92.20;;;;;;5053277;28;20033;-69
2021/09/03 09:46:15;;;;;;;;;;;20.90;91.50;;;;;;5052289;28;20484;-69
2021/09/03 09:48:50;;;;;;;10.63;6.65;;;21.00;91.30;;;;;;5052232;28;20447;-68
2021/09/03 09:51:26;;;;;;;12.48;6.32;;;21.10;91.00;;;;;;5052265;28;20018;-69
2021/09/03 09:54:12;;;;;;;6.97;5.90;;;21.20;90.50;;;;;;5053057;28;20037;-69
2021/09/03 09:56:47;;;;;;;9.75;7.38;;;21.30;90.20;;;;;;5045206;28;20382;-69
2021/09/03 09:59:14;;;;;;;8.15;6.32;;;21.50;88.70;;;;;;5052937;28;20013;-70
2021/09/03 10:01:43;;;;;;;10.20;6.45;;;21.50;89.20;;;;;;5052761;28;20068;-68
2021/09/03 10:04:11;;;;;;;14.65;7.40;;;21.50;88.90;;;;;;5051726;28;20020;-69
2021/09/03 10:06:39;;;;;;;8.98;6.30;;;21.60;88.00;;;;;;5051611;28;20029;-70
2021/09/03 10:09:08;;;;;;;8.57;6.43;;;21.70;87.50;;;;;;5051844;28;20029;-69
2021/09/03 10:11:36;;;;;;;8.70;6.45;;;21.80;88.10;;;;;;5052912;28;20083;-70
2021/09/03 10:14:03;;;;;;;9.82;6.25;;;21.90;87.40;;;;;;5051561;28;20467;-70
2021/09/03 10:16:29;;;;;;;8.93;6.18;;;22.00;86.70;;;;;;5052506;28;20044;-70
2021/09/03 10:18:57;;;;;;;9.50;6.35;;;22.10;85.00;;;;;;5052109;28;20359;-70
2021/09/03 10:21:25;;;;;;;11.18;7.13;;;22.20;84.00;;;;;;5052762;28;20037;-70
2021/09/03 10:24:04;;;;;;;9.05;6.35;;;22.50;84.10;;;;;;5052535;28;20394;-71
2021/09/03 10:26:33;;;;;;;9.05;6.07;;;22.50;84.50;;;;;;5045417;28;20526;-72
2021/09/03 10:29:35;;;;;;;12.50;6.63;;;22.70;82.60;;;;;;5051227;28;20095;-72
2021/09/03 10:32:07;;;;;;;10.02;6.68;;;22.70;82.50;;;;;;5051710;28;20199;-73
2021/09/03 10:34:51;;;;;;;9.38;6.40;;;22.90;81.70;;;;;;5051867;28;20048;-73
2021/09/03 10:37:21;;;;;;;7.13;5.82;;;23.00;80.60;;;;;;5050346;28;20041;-73
2021/09/03 10:40:21;;;;;;;7.60;6.65;;;23.10;80.40;;;;;;5043929;28;20048;-73
2021/09/03 10:42:51;;;;;;;6.45;5.63;;;23.30;79.90;;;;;;5051567;28;20063;-73
2021/09/03 10:45:22;;;;;;;6.78;6.05;;;23.40;79.00;;;;;;5051418;28;20025;-74
2021/09/03 10:48:11;;;;;;;8.20;5.90;;;23.60;77.80;;;;;;5052122;28;20017;-73
2021/09/03 10:50:52;;;;;;;8.15;5.65;;;23.80;77.80;;;;;;5050988;28;20451;-73
2021/09/03 10:53:31;;;;;;;8.85;6.45;;;24.00;76.20;;;;;;5050802;28;20485;-74
2021/09/03 10:56:01;;;;;;;10.23;6.53;;;24.00;75.80;;;;;;5051449;28;20040;-74
2021/09/03 10:58:39;;;;;;;8.00;6.85;;;24.10;76.60;;;;;;5051518;28;20033;-73
2021/09/03 11:01:10;;;;;;;9.35;6.38;;;24.30;74.00;;;;;;5050052;28;20107;-73
2021/09/03 11:03:43;;;;;;;9.00;6.22;;;24.30;74.00;;;;;;5051448;28;20128;-74
2021/09/03 11:06:35;;;;;;;8.55;6.53;;;24.20;73.60;;;;;;5051002;28;20811;-75
2021/09/03 11:09:25;;;;;;;6.70;5.65;;;24.30;73.20;;;;;;5026713;28;20062;-72
2021/09/03 11:12:09;;;;;;;9.20;7.35;;;24.40;73.90;;;;;;5050894;28;20382;-73
2021/09/03 11:14:36;;;;;;;9.45;7.18;;;24.70;72.50;;;;;;5051641;28;20044;-73
2021/09/03 11:17:11;;;;;;;7.90;6.50;;;24.90;71.00;;;;;;5050299;28;20167;-73
2021/09/03 11:19:37;;;;;;;9.15;6.53;;;24.90;70.10;;;;;;5051583;28;20454;-73
2021/09/03 11:22:09;;;;;;;7.18;6.45;;;24.80;69.80;;;;;;5050522;28;20076;-73
2021/09/03 11:24:55;;;;;;;7.00;6.30;;;24.80;69.80;;;;;;5051341;28;20103;-73
2021/09/03 11:27:27;;;;;;;8.43;6.80;;;24.80;69.40;;;;;;5051157;28;20063;-71
2021/09/03 11:30:00;;;;;;;7.13;6.43;;;24.90;69.30;;;;;;5051288;28;20031;-69
2021/09/03 11:32:33;;;;;;;8.27;6.38;;;25.00;69.40;;;;;;5051034;28;20033;-67
2021/09/03 11:35:03;;;;;;;7.60;6.50;;;25.10;68.80;;;;;;5050456;28;20036;-71
2021/09/03 11:37:37;;;;;;;9.18;5.82;;;;;;;;;;5051351;28;20032;-69
2021/09/03 11:40:12;;;;;;;7.25;5.88;;;;;;;;;;5050454;28;20391;-69
2021/09/03 11:42:40;;;;;;;6.80;6.10;;;;;;;;;;5050467;28;20052;-70
2021/09/03 11:45:16;;;;;;;9.73;6.53;;;26.10;90.10;;;;;;5050116;28;20025;-69
2021/09/03 11:47:49;;;;;;;7.13;6.32;;;26.10;91.30;;;;;;5051021;28;20083;-69
2021/09/03 11:50:28;;;;;;;6.75;5.45;;;26.00;91.40;;;;;;5050174;28;20033;-69
2021/09/03 11:52:54;;;;;;;7.63;5.63;;;;;;;;;;5050859;28;20072;-68
2021/09/03 11:55:21;;;;;;;9.57;5.80;;;;;;;;;;5050270;28;20099;-68
2021/09/03 11:57:57;;;;;;;7.18;5.97;;;;;;;;;;5051317;28;20025;-69
2021/09/03 12:00:24;;;;;;;7.47;5.30;;;;;;;;;;5049896;28;20028;-69
2021/09/03 12:02:51;;;;;;;8.07;6.35;;;26.50;92.40;;;;;;5050738;28;20021;-70
2021/09/03 12:05:19;;;;;;;5.95;5.35;;;26.30;91.50;;;;;;5048877;28;20021;-69
2021/09/03 12:08:10;;;;;;;7.18;5.70;;;26.30;90.80;;;;;;5051131;28;20033;-69
2021/09/03 12:10:49;;;;;;;7.30;6.05;;;26.40;90.60;;;;;;5050851;28;20489;-70
2021/09/03 12:13:17;;;;;;;6.88;6.18;;;26.70;89.90;;;;;;5049974;28;20029;-70
2021/09/03 12:15:46;;;;;;;7.07;5.82;;;26.80;63.20;;;;;;5050634;28;20049;-70
2021/09/03 12:18:28;;;;;;;5.97;5.28;;;26.80;62.50;;;;;;5050125;28;20033;-69
2021/09/03 12:20:57;;;;;;;5.88;5.28;;;27.10;61.40;;;;;;5038321;28;20112;-70
2021/09/03 12:23:24;;;;;;;6.13;5.53;;;27.60;60.70;;;;;;5031055;28;20045;-70
2021/09/03 12:25:49;;;;;;;6.15;5.45;;;27.60;61.20;;;;;;5033523;28;20542;-70
2021/09/03 12:28:20;;;;;;;8.27;5.63;;;27.70;60.60;;;;;;5050306;28;20100;-70
2021/09/03 12:30:51;;;;;;;5.93;4.93;;;28.00;60.30;;;;;;5050700;28;20033;-70
2021/09/03 12:33:28;;;;;;;6.10;5.38;;;28.00;59.20;;;;;;5049624;28;20068;-71
2021/09/03 12:35:57;;;;;;;6.13;5.47;;;28.30;75.70;;;;;;5049936;28;20045;-71
2021/09/03 12:38:34;;;;;;;5.60;4.93;;;28.60;73.60;;;;;;5050167;28;20025;-70
2021/09/03 12:41:08;;;;;;;6.60;5.43;;;28.60;73.20;;;;;;5050327;28;20055;-71
2021/09/03 12:43:33;;;;;;;8.40;6.30;;;28.70;73.20;;;;;;5050681;28;20394;-70